Time;durP1;ratioP1;P1;durP2;ratioP2;P2;SDS_P1;SDS_P2;PMS_P1;PMS_P2;Temp;Humidity;BMP_temperature;BMP_pressure;BME280_temperature;BME280_humidity;BME280_pressure;Samples;Min_cycle;Max_cycle;Signal;HPM_P1;HPM_P2
2023/03/25 00:02:05;;;;;;;5.45;1.55;;;;;;;-145.50;100.00;65435.88;4907992;29;20495;-66
2023/03/25 00:04:33;;;;;;;5.03;1.52;;;;;;;-145.50;100.00;65435.88;4902049;29;20048;-68
2023/03/25 00:07:01;;;;;;;3.78;1.13;;;;;;;-145.50;100.00;65435.88;4908434;29;20411;-67
2023/03/25 00:09:28;;;;;;;6.53;1.70;;;;;;;-145.50;100.00;65435.88;4899598;29;20139;-66
2023/03/25 00:11:55;;;;;;;4.45;1.60;;;;;;;-145.50;100.00;65435.88;4907494;29;20461;-66
2023/03/25 00:14:23;;;;;;;4.68;1.30;;;;;;;-145.50;100.00;65435.88;4903604;29;20056;-66
2023/03/25 00:16:51;;;;;;;8.40;1.20;;;;;;;-145.50;100.00;65435.88;4896757;29;20062;-66
2023/03/25 00:19:20;;;;;;;8.23;1.63;;;;;;;-145.50;100.00;65435.88;4903173;29;20067;-66
2023/03/25 00:21:49;;;;;;;3.88;1.20;;;;;;;-145.50;100.00;65435.88;4899382;29;20059;-66
2023/03/25 00:24:16;;;;;;;5.40;1.35;;;;;;;-145.50;100.00;65435.88;4907058;29;20072;-66
2023/03/25 00:26:45;;;;;;;4.85;1.30;;;;;;;-145.50;100.00;65435.88;4899712;29;20142;-66
2023/03/25 00:29:12;;;;;;;4.82;1.30;;;;;;;-145.50;100.00;65435.88;4905210;29;20120;-67
2023/03/25 00:31:39;;;;;;;5.05;1.40;;;;;;;-145.50;100.00;65435.88;4900154;29;20052;-67
2023/03/25 00:34:07;;;;;;;8.45;1.73;;;;;;;-145.50;100.00;65435.88;4904590;29;20475;-66
2023/03/25 00:36:37;;;;;;;4.80;1.30;;;;;;;-145.50;100.00;65435.88;4908014;29;20525;-65
2023/03/25 00:39:04;;;;;;;6.18;1.33;;;;;;;-145.50;100.00;65435.88;4898413;29;20062;-66
2023/03/25 00:41:31;;;;;;;10.02;1.58;;;;;;;-145.50;100.00;65435.88;4907611;29;20052;-66
2023/03/25 00:43:59;;;;;;;5.10;1.40;;;;;;;-145.50;100.00;65435.88;4896832;29;20056;-67
2023/03/25 00:46:27;;;;;;;4.72;1.40;;;;;;;-145.50;100.00;65435.88;4901800;29;20710;-65
2023/03/25 00:48:55;;;;;;;12.38;2.70;;;;;;;-145.50;100.00;65435.88;4906870;29;20056;-66
2023/03/25 00:51:23;;;;;;;5.07;1.60;;;;;;;-145.50;100.00;65435.88;4901241;29;20112;-66
2023/03/25 00:53:54;;;;;;;5.13;1.40;;;;;;;-145.50;100.00;65435.88;4908092;29;20152;-66
2023/03/25 00:56:22;;;;;;;10.98;1.70;;;;;;;-145.50;100.00;65435.88;4902259;29;20054;-66
2023/03/25 00:58:49;;;;;;;13.25;1.80;;;;;;;-145.50;100.00;65435.88;4905210;29;20060;-66
2023/03/25 01:01:22;;;;;;;10.10;1.83;;;;;;;-145.50;100.00;65435.88;4900193;29;20139;-66
2023/03/25 01:03:56;;;;;;;11.48;2.20;;;;;;;-145.50;100.00;65435.88;4912026;29;20170;-67
2023/03/25 01:06:31;;;;;;;8.13;1.58;;;;;;;-145.50;100.00;65435.88;4907674;29;20052;-65
2023/03/25 01:09:00;;;;;;;5.65;1.48;;;;;;;-145.50;100.00;65435.88;4899553;29;20128;-65
2023/03/25 01:11:29;;;;;;;8.98;1.73;;;;;;;-145.50;100.00;65435.88;4906190;29;20150;-65
2023/03/25 01:13:58;;;;;;;9.32;1.65;;;;;;;-145.50;100.00;65435.88;4898962;29;20071;-65
2023/03/25 01:16:26;;;;;;;5.38;1.20;;;;;;;-145.50;100.00;65435.88;4909958;29;20063;-66
2023/03/25 01:18:54;;;;;;;10.27;1.90;;;;;;;-145.50;100.00;65435.88;4902441;29;20417;-64
2023/03/25 01:21:20;;;;;;;8.27;1.83;;;;;;;-145.50;100.00;65435.88;4909890;29;20482;-66
2023/03/25 01:23:47;;;;;;;8.00;1.45;;;;;;;-145.50;100.00;65435.88;4909920;29;20059;-66
2023/03/25 01:26:14;;;;;;;9.57;1.52;;;;;;;-145.50;100.00;65435.88;4899777;29;20425;-65
2023/03/25 01:28:42;;;;;;;11.50;2.03;;;;;;;-145.50;100.00;65435.88;4905177;29;20051;-64
2023/03/25 01:31:12;;;;;;;11.97;2.03;;;;;;;-145.50;100.00;65435.88;4903560;29;20475;-65
2023/03/25 01:33:39;;;;;;;6.90;1.55;;;;;;;-145.50;100.00;65435.88;4909695;29;20104;-64
2023/03/25 01:36:11;;;;;;;7.95;1.63;;;;;;;-145.50;100.00;65435.88;4903731;29;20048;-66
2023/03/25 01:38:39;;;;;;;10.65;1.90;;;;;;;-145.50;100.00;65435.88;4904451;29;20524;-65
2023/03/25 01:41:07;;;;;;;9.85;1.73;;;;;;;-145.50;100.00;65435.88;4899401;29;20052;-65
2023/03/25 01:43:34;;;;;;;6.80;1.67;;;;;;;-145.50;100.00;65435.88;4897484;29;20067;-65
2023/03/25 01:46:01;;;;;;;6.97;1.50;;;;;;;-145.50;100.00;65435.88;4904449;29;20402;-65
2023/03/25 01:48:38;;;;;;;10.38;2.33;;;;;;;-145.50;100.00;65435.88;4903206;29;20056;-66
2023/03/25 01:51:16;;;;;;;9.90;1.80;;;;;;;-145.50;100.00;65435.88;4910435;29;20341;-66
2023/03/25 01:53:43;;;;;;;11.32;1.92;;;;;;;-145.50;100.00;65435.88;4892670;29;20059;-65
2023/03/25 01:56:14;;;;;;;9.25;1.77;;;;;;;-145.50;100.00;65435.88;4905856;29;20056;-66
2023/03/25 01:58:42;;;;;;;9.40;1.73;;;;;;;-145.50;100.00;65435.88;4903468;29;20058;-65
2023/03/25 02:01:12;;;;;;;7.65;1.75;;;;;;;-145.50;100.00;65435.88;4908370;29;20135;-65
2023/03/25 02:03:44;;;;;;;8.88;2.17;;;;;;;-145.50;100.00;65435.88;4908987;29;20136;-65
2023/03/25 02:06:19;;;;;;;3.88;1.40;;;;;;;-145.50;100.00;65435.88;4896189;29;20063;-66
2023/03/25 02:08:46;;;;;;;9.15;1.27;;;;;;;-145.50;100.00;65435.88;4908929;29;20083;-66
2023/03/25 02:11:13;;;;;;;6.30;1.25;;;;;;;-145.50;100.00;65435.88;4904440;29;20048;-66
2023/03/25 02:13:40;;;;;;;7.85;1.90;;;;;;;-145.50;100.00;65435.88;4909120;29;20099;-65
2023/03/25 02:16:35;;;;;;;7.10;1.92;;;;;;;-145.50;100.00;65435.88;4904113;29;20059;-66
2023/03/25 02:19:41;;;;;;;4.60;1.67;;;;;;;-145.50;100.00;65435.88;4900054;29;20505;-67
2023/03/25 02:22:26;;;;;;;6.45;1.83;;;;;;;-145.50;100.00;65435.88;4893366;29;20091;-67
2023/03/25 02:25:10;;;;;;;8.35;1.83;;;;;;;-145.50;100.00;65435.88;4908766;29;20055;-66
2023/03/25 02:28:02;;;;;;;15.32;2.20;;;;;;;-145.50;100.00;65435.88;4903453;29;20078;-66
2023/03/25 02:30:52;;;;;;;6.30;1.90;;;;;;;-145.50;100.00;65435.88;4908355;29;20577;-67
2023/03/25 02:33:42;;;;;;;4.72;1.85;;;;;;;-145.50;100.00;65435.88;4899234;29;20649;-66
2023/03/25 02:36:33;;;;;;;6.45;1.55;;;;;;;-145.50;100.00;65435.88;4904073;29;20425;-66
2023/03/25 02:39:07;;;;;;;3.60;1.63;;;;;;;-145.50;100.00;65435.88;4893944;29;20047;-66
2023/03/25 02:41:48;;;;;;;4.75;2.15;;;;;;;-145.50;100.00;65435.88;4908606;29;20051;-65
2023/03/25 02:44:33;;;;;;;5.00;1.90;;;;;;;-145.50;100.00;65435.88;4908217;29;20060;-66
2023/03/25 02:47:07;;;;;;;7.18;1.90;;;;;;;-145.50;100.00;65435.88;4896782;29;20059;-66
2023/03/25 02:49:41;;;;;;;6.07;1.50;;;;;;;-145.50;100.00;65435.88;4908662;29;20063;-65
2023/03/25 02:52:19;;;;;;;5.88;1.45;;;;;;;-145.50;100.00;65435.88;4896909;29;20639;-66
2023/03/25 02:54:49;;;;;;;5.57;2.17;;;;;;;-145.50;100.00;65435.88;4905990;29;20055;-67
2023/03/25 02:57:18;;;;;;;8.20;2.78;;;;;;;-145.50;100.00;65435.88;4915052;28;20453;-67
2023/03/25 02:59:47;;;;;;;8.50;2.30;;;;;;;-145.50;100.00;65435.88;4913124;29;20437;-66
2023/03/25 03:02:14;;;;;;;8.48;2.15;;;;;;;-145.50;100.00;65435.88;4909071;29;20048;-65
2023/03/25 03:04:46;;;;;;;4.88;2.08;;;;;;;-145.50;100.00;65435.88;4902300;29;20568;-67
2023/03/25 03:07:23;;;;;;;10.20;2.38;;;;;;;-145.50;100.00;65435.88;4907823;29;20051;-65
2023/03/25 03:09:59;;;;;;;5.15;1.90;;;;;;;-145.50;100.00;65435.88;4899067;29;20060;-67
2023/03/25 03:12:40;;;;;;;4.97;1.45;;;;;;;-145.50;100.00;65435.88;4907720;29;20056;-66
2023/03/25 03:15:45;;;;;;;5.60;1.55;;;;;;;-145.50;100.00;65435.88;4903466;29;20056;-67
2023/03/25 03:18:52;;;;;;;4.28;1.55;;;;;;;-145.50;100.00;65435.88;4893129;29;20060;-66
2023/03/25 03:21:40;;;;;;;6.75;2.05;;;;;;;-145.50;100.00;65435.88;4893177;29;20695;-65
2023/03/25 03:24:18;;;;;;;7.90;1.92;;;;;;;-145.50;100.00;65435.88;4895307;29;20576;-67
2023/03/25 03:27:06;;;;;;;6.68;2.00;;;;;;;-145.50;100.00;65435.88;4901107;29;20067;-65
2023/03/25 03:29:42;;;;;;;4.93;1.83;;;;;;;-145.50;100.00;65435.88;4872938;29;20082;-64
2023/03/25 03:32:19;;;;;;;8.25;2.08;;;;;;;-145.50;100.00;65435.88;4901586;29;20138;-66
2023/03/25 03:34:53;;;;;;;6.35;2.05;;;;;;;-145.50;100.00;65435.88;4901358;29;20062;-65
2023/03/25 03:37:30;;;;;;;9.30;1.90;;;;;;;-145.50;100.00;65435.88;4891951;29;20062;-64
2023/03/25 03:39:57;;;;;;;9.90;2.40;;;;;;;-145.50;100.00;65435.88;4907842;29;20056;-70
2023/03/25 03:42:38;;;;;;;10.70;2.65;;;;;;;-145.50;100.00;65435.88;4899966;29;20501;-69
2023/03/25 03:45:15;;;;;;;5.72;2.30;;;;;;;-145.50;100.00;65435.88;4908711;29;20060;-70
2023/03/25 03:47:47;;;;;;;5.68;2.13;;;;;;;-145.50;100.00;65435.88;4891367;29;20059;-71
2023/03/25 03:50:22;;;;;;;5.78;1.83;;;;;;;-145.50;100.00;65435.88;4900640;29;20063;-69
2023/03/25 03:53:05;;;;;;;6.40;2.00;;;;;;;-145.50;100.00;65435.88;4906081;29;20548;-69
2023/03/25 03:55:40;;;;;;;11.63;2.42;;;;;;;-145.50;100.00;65435.88;4902484;29;20055;-70
2023/03/25 04:01:44;;;;;;;6.90;2.20;;;;;;;-145.50;100.00;65435.88;4899342;29;20454;-70
2023/03/25 04:04:20;;;;;;;8.32;2.10;;;;;;;-145.50;100.00;65435.88;4899732;29;20597;-70
2023/03/25 04:07:15;;;;;;;10.65;2.45;;;;;;;-145.50;100.00;65435.88;4902245;29;20044;-69
2023/03/25 04:10:20;;;;;;;5.80;2.00;;;;;;;-145.50;100.00;65435.88;4906901;29;20055;-69
2023/03/25 04:12:51;;;;;;;7.30;2.03;;;;;;;-145.50;100.00;65435.88;4899589;29;20056;-69
2023/03/25 04:15:18;;;;;;;8.15;2.22;;;;;;;-145.50;100.00;65435.88;4903752;29;20191;-68
2023/03/25 04:17:46;;;;;;;9.77;2.05;;;;;;;-145.50;100.00;65435.88;4897437;29;20059;-69
2023/03/25 04:20:14;;;;;;;;;;;;;;;-145.50;100.00;65435.88;4906812;29;20052;-68
2023/03/25 04:22:44;;;;;;;8.23;1.80;;;;;;;-145.50;100.00;65435.88;4901087;29;20455;-68
2023/03/25 04:25:12;;;;;;;4.97;1.52;;;;;;;-145.50;100.00;65435.88;4907519;29;20056;-69
2023/03/25 04:27:39;;;;;;;6.38;2.78;;;;;;;-145.50;100.00;65435.88;4905944;29;20056;-67
2023/03/25 04:30:07;;;;;;;11.63;2.13;;;;;;;-145.50;100.00;65435.88;4903673;29;20068;-68
2023/03/25 04:32:33;;;;;;;13.30;2.57;;;;;;;-145.50;100.00;65435.88;4907856;29;20488;-68
2023/03/25 04:35:00;;;;;;;8.10;2.00;;;;;;;-145.50;100.00;65435.88;4902428;29;20478;-69
2023/03/25 04:37:27;;;;;;;8.00;2.17;;;;;;;-145.50;100.00;65435.88;4909502;29;20052;-68
2023/03/25 04:39:58;;;;;;;7.38;1.92;;;;;;;-145.50;100.00;65435.88;4903973;29;20064;-68
2023/03/25 04:42:31;;;;;;;8.52;2.42;;;;;;;-145.50;100.00;65435.88;4910303;29;20064;-68
2023/03/25 04:44:58;;;;;;;10.30;2.72;;;;;;;-145.50;100.00;65435.88;4903963;29;20167;-68
2023/03/25 04:47:26;;;;;;;9.40;2.42;;;;;;;-145.50;100.00;65435.88;4904770;29;20131;-68
2023/03/25 04:49:52;;;;;;;11.68;2.28;;;;;;;-145.50;100.00;65435.88;4908317;29;20138;-69
2023/03/25 04:52:19;;;;;;;9.38;2.03;;;;;;;-145.50;100.00;65435.88;4904418;29;20060;-68
2023/03/25 04:54:45;;;;;;;7.95;1.95;;;;;;;-145.50;100.00;65435.88;4910935;29;20059;-68
2023/03/25 04:57:12;;;;;;;9.40;2.25;;;;;;;-145.50;100.00;65435.88;4900915;29;20731;-68
2023/03/25 04:59:38;;;;;;;13.55;2.47;;;;;;;-145.50;100.00;65435.88;4905787;29;20123;-68
2023/03/25 05:02:05;;;;;;;6.35;1.75;;;;;;;-145.50;100.00;65435.88;4910221;29;20055;-68
2023/03/25 05:04:33;;;;;;;10.02;2.33;;;;;;;-145.50;100.00;65435.88;4905026;29;20050;-69
2023/03/25 05:07:00;;;;;;;14.93;2.15;;;;;;;-145.50;100.00;65435.88;4911155;29;20085;-68
2023/03/25 05:09:28;;;;;;;8.88;2.03;;;;;;;-145.50;100.00;65435.88;4905332;29;20056;-69
2023/03/25 05:11:55;;;;;;;10.75;2.17;;;;;;;-145.50;100.00;65435.88;4900209;29;20044;-68
2023/03/25 05:14:21;;;;;;;11.05;1.90;;;;;;;-145.50;100.00;65435.88;4901181;29;20048;-67
2023/03/25 05:16:49;;;;;;;11.93;2.13;;;;;;;-145.50;100.00;65435.88;4909986;29;20143;-69
2023/03/25 05:19:17;;;;;;;6.72;1.52;;;;;;;-145.50;100.00;65435.88;4913698;29;20492;-69
2023/03/25 05:21:44;;;;;;;8.65;1.85;;;;;;;-145.50;100.00;65435.88;4904642;29;20476;-69
2023/03/25 05:24:12;;;;;;;6.18;2.00;;;;;;;-145.50;100.00;65435.88;4910677;29;20075;-69
2023/03/25 05:26:40;;;;;;;11.40;1.95;;;;;;;-145.50;100.00;65435.88;4899234;29;20350;-68
2023/03/25 05:29:12;;;;;;;8.65;2.30;;;;;;;-145.50;100.00;65435.88;4913532;29;20047;-68
2023/03/25 05:31:44;;;;;;;4.95;1.83;;;;;;;-145.50;100.00;65435.88;4909287;29;20552;-68
2023/03/25 05:34:15;;;;;;;8.68;2.08;;;;;;;-145.50;100.00;65435.88;4910055;29;20092;-68
2023/03/25 05:36:42;;;;;;;8.77;1.98;;;;;;;-145.50;100.00;65435.88;4910047;29;20424;-68
2023/03/25 05:39:09;;;;;;;9.05;1.90;;;;;;;-145.50;100.00;65435.88;4897697;29;20055;-68
2023/03/25 05:41:39;;;;;;;4.78;1.50;;;;;;;-145.50;100.00;65435.88;4909138;29;20060;-68
2023/03/25 05:44:07;;;;;;;9.95;1.77;;;;;;;-145.50;100.00;65435.88;4907085;29;20147;-68
2023/03/25 05:46:34;;;;;;;7.43;2.20;;;;;;;-145.50;100.00;65435.88;4902401;29;20048;-69
2023/03/25 05:49:01;;;;;;;7.85;1.77;;;;;;;-145.50;100.00;65435.88;4904713;29;20111;-68
2023/03/25 05:51:32;;;;;;;6.35;1.75;;;;;;;-145.50;100.00;65435.88;4905117;29;20055;-69
2023/03/25 05:54:00;;;;;;;9.00;2.35;;;;;;;-145.50;100.00;65435.88;4905998;29;20080;-69
2023/03/25 05:56:28;;;;;;;9.88;2.10;;;;;;;-145.50;100.00;65435.88;4902862;29;20044;-68
2023/03/25 05:58:56;;;;;;;6.68;1.70;;;;;;;-145.50;100.00;65435.88;4909742;29;20063;-68
2023/03/25 06:01:22;;;;;;;6.27;2.00;;;;;;;-145.50;100.00;65435.88;4899606;29;20421;-68
2023/03/25 06:04:00;;;;;;;6.70;2.22;;;;;;;-145.50;100.00;65435.88;4909319;29;20065;-68
2023/03/25 06:06:27;;;;;;;7.15;1.95;;;;;;;-145.50;100.00;65435.88;4898096;29;20500;-68
2023/03/25 06:08:54;;;;;;;8.65;2.30;;;;;;;-145.50;100.00;65435.88;4906803;29;20752;-69
2023/03/25 06:11:21;;;;;;;9.57;2.10;;;;;;;-145.50;100.00;65435.88;4906607;29;20428;-69
2023/03/25 06:13:50;;;;;;;14.23;2.95;;;;;;;-145.50;100.00;65435.88;4902397;29;20066;-69
2023/03/25 06:16:26;;;;;;;7.53;2.28;;;;;;;-145.50;100.00;65435.88;4908220;29;20127;-69
2023/03/25 06:18:58;;;;;;;7.93;2.47;;;;;;;-145.50;100.00;65435.88;4897515;29;20059;-67
2023/03/25 06:21:33;;;;;;;6.75;2.22;;;;;;;-145.50;100.00;65435.88;4905171;29;20048;-67
2023/03/25 06:24:00;;;;;;;8.40;2.00;;;;;;;-145.50;100.00;65435.88;4900523;29;20505;-67
2023/03/25 06:26:27;;;;;;;9.35;2.70;;;;;;;-145.50;100.00;65435.88;4908687;29;20056;-67
2023/03/25 06:28:54;;;;;;;7.53;2.20;;;;;;;-145.50;100.00;65435.88;4909348;29;20472;-67
2023/03/25 06:31:25;;;;;;;13.27;3.15;;;;;;;-145.50;100.00;65435.88;4903888;29;20052;-67
2023/03/25 06:33:53;;;;;;;7.20;2.63;;;;;;;-145.50;100.00;65435.88;4904128;29;20144;-69
2023/03/25 06:36:19;;;;;;;9.40;2.55;;;;;;;-145.50;100.00;65435.88;4898646;29;20100;-67
2023/03/25 06:38:48;;;;;;;10.20;2.42;;;;;;;-145.50;100.00;65435.88;4907657;29;20063;-69
2023/03/25 06:41:19;;;;;;;;;;;;;;;-145.50;100.00;65435.88;4903728;29;20048;-67
2023/03/25 06:43:47;;;;;;;9.63;2.42;;;;;;;-145.50;100.00;65435.88;4903115;29;20026;-68
2023/03/25 06:46:13;;;;;;;10.03;2.40;;;;;;;-145.50;100.00;65435.88;4908928;29;20055;-67
2023/03/25 06:48:40;;;;;;;12.25;2.70;;;;;;;-145.50;100.00;65435.88;4895482;29;20879;-67
2023/03/25 06:51:07;;;;;;;9.93;3.15;;;;;;;-145.50;100.00;65435.88;4905566;29;20501;-68
2023/03/25 06:53:33;;;;;;;6.93;2.50;;;;;;;-145.50;100.00;65435.88;4903509;29;20088;-67
2023/03/25 06:56:00;;;;;;;5.45;2.45;;;;;;;-145.50;100.00;65435.88;4907562;29;20808;-68
2023/03/25 06:58:33;;;;;;;12.23;2.90;;;;;;;-145.50;100.00;65435.88;4897281;29;20108;-67
2023/03/25 07:01:05;;;;;;;10.23;3.10;;;;;;;-145.50;100.00;65435.88;4904995;29;20610;-67
2023/03/25 07:03:33;;;;;;;11.20;2.50;;;;;;;-145.50;100.00;65435.88;4902332;29;20056;-67
2023/03/25 07:05:59;;;;;;;9.15;2.55;;;;;;;-145.50;100.00;65435.88;4897891;29;20082;-67
2023/03/25 07:08:25;;;;;;;9.15;2.40;;;;;;;-145.50;100.00;65435.88;4908858;29;20107;-70
2023/03/25 07:10:52;;;;;;;12.18;2.63;;;;;;;-145.50;100.00;65435.88;4902034;29;20478;-67
2023/03/25 07:13:19;;;;;;;10.65;2.80;;;;;;;-145.50;100.00;65435.88;4908681;29;20098;-67
2023/03/25 07:15:45;;;;;;;9.88;2.53;;;;;;;-145.50;100.00;65435.88;4897716;29;20056;-70
2023/03/25 07:18:12;;;;;;;7.85;2.00;;;;;;;-145.50;100.00;65435.88;4904070;29;20079;-67
2023/03/25 07:20:38;;;;;;;9.98;2.08;;;;;;;-145.50;100.00;65435.88;4907688;29;20047;-67
2023/03/25 07:23:11;;;;;;;8.57;2.67;;;;;;;-145.50;100.00;65435.88;4901478;29;20147;-67
2023/03/25 07:25:38;;;;;;;9.80;2.78;;;;;;;-145.50;100.00;65435.88;4908343;29;20063;-67
2023/03/25 07:28:04;;;;;;;12.57;2.88;;;;;;;-145.50;100.00;65435.88;4900326;29;20458;-67
2023/03/25 07:30:31;;;;;;;12.63;2.72;;;;;;;-145.50;100.00;65435.88;4907734;29;20189;-67
2023/03/25 07:32:57;;;;;;;17.92;3.33;;;;;;;-145.50;100.00;65435.88;4897023;29;20055;-71
2023/03/25 07:35:24;;;;;;;13.00;3.22;;;;;;;-145.50;100.00;65435.88;4908202;29;20056;-69
2023/03/25 07:37:51;;;;;;;12.50;3.03;;;;;;;-145.50;100.00;65435.88;4920552;29;20052;-69
2023/03/25 07:40:17;;;;;;;13.52;2.80;;;;;;;-145.50;100.00;65435.88;4901323;29;20105;-69
2023/03/25 07:42:44;;;;;;;12.05;3.28;;;;;;;-145.50;100.00;65435.88;4903801;29;20063;-70
2023/03/25 07:45:11;;;;;;;12.00;3.20;;;;;;;-145.50;100.00;65435.88;4894788;29;20140;-69
2023/03/25 07:47:37;;;;;;;12.07;2.65;;;;;;;-145.50;100.00;65435.88;4905787;29;20078;-69
2023/03/25 07:50:05;;;;;;;16.30;3.25;;;;;;;-145.50;100.00;65435.88;4902267;29;20108;-69
2023/03/25 07:52:31;;;;;;;16.35;3.00;;;;;;;-145.50;100.00;65435.88;4905172;29;20052;-69
2023/03/25 07:54:59;;;;;;;10.73;3.08;;;;;;;-145.50;100.00;65435.88;4907437;29;20063;-70
2023/03/25 07:57:26;;;;;;;13.80;2.80;;;;;;;-145.50;100.00;65435.88;4895778;29;20098;-69
2023/03/25 07:59:52;;;;;;;11.20;2.78;;;;;;;-145.50;100.00;65435.88;4902870;29;20052;-69
2023/03/25 08:02:19;;;;;;;11.82;2.55;;;;;;;-145.50;100.00;65435.88;4900491;29;20610;-69
2023/03/25 08:04:45;;;;;;;15.38;3.53;;;;;;;-145.50;100.00;65435.88;4911273;29;20052;-69
2023/03/25 08:07:12;;;;;;;15.68;3.50;;;;;;;-145.50;100.00;65435.88;4908095;29;20135;-69
2023/03/25 08:09:40;;;;;;;14.20;3.47;;;;;;;-145.50;100.00;65435.88;4925150;29;20056;-70
2023/03/25 08:12:07;;;;;;;11.63;3.13;;;;;;;-145.50;100.00;65435.88;4905080;29;20056;-69
2023/03/25 08:14:34;;;;;;;10.40;3.50;;;;;;;-145.50;100.00;65435.88;4901536;29;20892;-69
2023/03/25 08:17:00;;;;;;;17.15;3.30;;;;;;;-145.50;100.00;65435.88;4910927;29;20051;-69
2023/03/25 08:19:27;;;;;;;10.68;2.78;;;;;;;-145.50;100.00;65435.88;4893098;29;20056;-70
2023/03/25 08:21:54;;;;;;;17.30;3.70;;;;;;;-145.50;100.00;65435.88;4911653;29;20413;-70
2023/03/25 08:24:20;;;;;;;17.10;2.90;;;;;;;-145.50;100.00;65435.88;4905875;29;20492;-70
2023/03/25 08:26:47;;;;;;;15.10;3.30;;;;;;;-145.50;100.00;65435.88;4905463;29;20167;-67
2023/03/25 08:29:16;;;;;;;16.42;3.20;;;;;;;-145.50;100.00;65435.88;4907613;29;20059;-70
2023/03/25 08:31:45;;;;;;;11.48;2.35;;;;;;;-145.50;100.00;65435.88;4904356;29;20076;-70
2023/03/25 08:34:13;;;;;;;16.08;2.85;;;;;;;-145.50;100.00;65435.88;4911961;29;20060;-70
2023/03/25 08:36:39;;;;;;;15.57;2.80;;;;;;;-145.50;100.00;65435.88;4904970;29;20087;-69
2023/03/25 08:39:10;;;;;;;12.93;2.90;;;;;;;-145.50;100.00;65435.88;4905135;29;20269;-70
2023/03/25 08:41:38;;;;;;;18.73;2.83;;;;;;;-145.50;100.00;65435.88;4900844;29;20062;-70
2023/03/25 08:44:05;;;;;;;14.90;2.72;;;;;;;-145.50;100.00;65435.88;4911175;29;20071;-69
2023/03/25 08:46:32;;;;;;;13.10;2.45;;;;;;;-145.50;100.00;65435.88;4910943;29;20062;-69
2023/03/25 08:48:59;;;;;;;19.10;3.03;;;;;;;-145.50;100.00;65435.88;4903989;29;20044;-69
2023/03/25 08:51:26;;;;;;;13.38;2.60;;;;;;;-145.50;100.00;65435.88;4911669;29;20162;-70
2023/03/25 08:53:53;;;;;;;14.93;2.92;;;;;;;-145.50;100.00;65435.88;4899338;29;20466;-70
2023/03/25 08:56:19;;;;;;;17.45;2.85;;;;;;;-145.50;100.00;65435.88;4906290;29;20426;-70
2023/03/25 08:58:46;;;;;;;11.75;3.05;;;;;;;-145.50;100.00;65435.88;4911364;29;20135;-70
2023/03/25 09:01:12;;;;;;;17.65;3.47;;;;;;;-145.50;100.00;65435.88;4903579;28;20060;-70
2023/03/25 09:03:39;;;;;;;12.68;2.80;;;;;;;-145.50;100.00;65435.88;4910804;29;20056;-70
2023/03/25 09:06:08;;;;;;;15.23;3.17;;;;;;;-145.50;100.00;65435.88;4905339;29;20062;-70
2023/03/25 09:08:36;;;;;;;11.35;2.80;;;;;;;-145.50;100.00;65435.88;4904216;29;20138;-69
2023/03/25 09:11:03;;;;;;;14.48;2.70;;;;;;;-145.50;100.00;65435.88;4903302;29;20059;-71
2023/03/25 09:13:30;;;;;;;18.13;3.33;;;;;;;-145.50;100.00;65435.88;4926596;29;20043;-73
2023/03/25 09:15:57;;;;;;;14.70;2.65;;;;;;;-145.50;100.00;65435.88;4910568;29;20176;-70
2023/03/25 09:18:24;;;;;;;15.77;2.45;;;;;;;-145.50;100.00;65435.88;4904080;29;20059;-69
2023/03/25 09:20:51;;;;;;;17.23;2.70;;;;;;;-145.50;100.00;65435.88;4906811;29;20389;-71
2023/03/25 09:23:17;;;;;;;12.60;2.63;;;;;;;-145.50;100.00;65435.88;4898945;29;20056;-68
2023/03/25 09:25:45;;;;;;;14.93;2.55;;;;;;;-145.50;100.00;65435.88;4913261;29;20052;-70
2023/03/25 09:28:11;;;;;;;15.50;2.40;;;;;;;-145.50;100.00;65435.88;4905227;29;20108;-70
2023/03/25 09:30:38;;;;;;;10.13;2.60;;;;;;;-145.50;100.00;65435.88;4910398;29;20052;-69
2023/03/25 09:33:05;;;;;;;12.98;2.58;;;;;;;-145.50;100.00;65435.88;4910586;29;20112;-70
2023/03/25 09:35:32;;;;;;;13.80;2.80;;;;;;;-145.50;100.00;65435.88;4900995;29;20052;-69
2023/03/25 09:37:59;;;;;;;15.32;2.67;;;;;;;-145.50;100.00;65435.88;4903507;29;20055;-69
2023/03/25 09:40:25;;;;;;;14.77;3.25;;;;;;;-145.50;100.00;65435.88;4902898;29;20469;-70
2023/03/25 09:43:25;;;;;;;13.60;2.90;;;;;;;-145.50;100.00;65435.88;4916714;29;20084;-67
2023/03/25 09:45:54;;;;;;;18.95;2.97;;;;;;;-145.50;100.00;65435.88;4902654;29;20078;-68
2023/03/25 09:48:43;;;;;;;;;;;;;;;-145.50;100.00;65435.88;4909425;29;20189;-67
2023/03/25 09:51:17;;;;;;;19.80;3.40;;;;;;;-145.50;100.00;65435.88;4893441;29;19942;-69
2023/03/25 09:53:50;;;;;;;18.70;4.30;;;;;;;-145.50;100.00;65435.88;4908796;29;20052;-68
2023/03/25 09:56:20;;;;;;;13.15;2.95;;;;;;;-145.50;100.00;65435.88;4912195;29;20052;-68
2023/03/25 09:58:50;;;;;;;11.05;3.08;;;;;;;-145.50;100.00;65435.88;4904262;29;20047;-68
2023/03/25 10:01:26;;;;;;;11.60;2.67;;;;;;;-145.50;100.00;65435.88;4909258;29;20056;-68
2023/03/25 10:04:23;;;;;;;19.42;2.78;;;;;;;-145.50;100.00;65435.88;4897073;29;20056;-69
2023/03/25 10:06:55;;;;;;;14.90;2.90;;;;;;;-145.50;100.00;65435.88;4899147;29;20067;-68
2023/03/25 10:09:39;;;;;;;13.75;3.42;;;;;;;-145.50;100.00;65435.88;4901089;29;20064;-69
2023/03/25 10:12:16;;;;;;;12.23;2.90;;;;;;;-145.50;100.00;65435.88;4910278;29;20486;-69
2023/03/25 10:15:11;;;;;;;11.10;2.03;;;;;;;-145.50;100.00;65435.88;4902579;29;20052;-68
2023/03/25 10:17:40;;;;;;;11.18;2.40;;;;;;;-145.50;100.00;65435.88;4905100;29;20044;-68
2023/03/25 10:20:20;;;;;;;11.93;2.60;;;;;;;-145.50;100.00;65435.88;4898886;29;20059;-68
2023/03/25 10:23:13;;;;;;;14.25;2.67;;;;;;;-145.50;100.00;65435.88;4906011;29;20056;-68
2023/03/25 10:25:44;;;;;;;11.98;2.47;;;;;;;-145.50;100.00;65435.88;4902475;29;20060;-68
2023/03/25 10:28:20;;;;;;;13.77;2.83;;;;;;;-145.50;100.00;65435.88;4902136;29;20091;-69
2023/03/25 10:30:51;;;;;;;11.35;2.38;;;;;;;-145.50;100.00;65435.88;4904248;29;20044;-68
2023/03/25 10:33:53;;;;;;;10.20;2.33;;;;;;;-145.50;100.00;65435.88;4894188;29;20608;-69
2023/03/25 10:36:30;;;;;;;15.60;2.78;;;;;;;-145.50;100.00;65435.88;4909830;29;20055;-69
2023/03/25 10:39:00;;;;;;;21.23;4.82;;;;;;;-145.50;100.00;65435.88;4897527;29;20052;-69
2023/03/25 10:41:34;;;;;;;14.13;3.17;;;;;;;-145.50;100.00;65435.88;4909364;29;20569;-69
2023/03/25 10:44:01;;;;;;;21.10;2.78;;;;;;;-145.50;100.00;65435.88;4900795;29;20056;-69
2023/03/25 10:46:38;;;;;;;20.67;3.22;;;;;;;-145.50;100.00;65435.88;4902944;29;20052;-70
2023/03/25 10:49:04;;;;;;;16.98;3.67;;;;;;;-145.50;100.00;65435.88;4903950;29;20406;-71
2023/03/25 10:51:34;;;;;;;17.92;2.92;;;;;;;-145.50;100.00;65435.88;4909071;29;20458;-70
2023/03/25 10:54:01;;;;;;;21.45;3.55;;;;;;;-145.50;100.00;65435.88;4905786;29;20135;-70
2023/03/25 10:56:38;;;;;;;25.38;4.25;;;;;;;-145.50;100.00;65435.88;4902558;29;20058;-70
2023/03/25 10:59:16;;;;;;;17.27;3.05;;;;;;;-145.50;100.00;65435.88;4900036;29;20060;-70
2023/03/25 11:01:44;;;;;;;17.38;3.20;;;;;;;-145.50;100.00;65435.88;4897462;29;20044;-71
2023/03/25 11:04:16;;;;;;;22.10;3.30;;;;;;;-145.50;100.00;65435.88;4908584;29;20060;-71
2023/03/25 11:06:52;;;;;;;19.65;3.30;;;;;;;-145.50;100.00;65435.88;4897107;29;20109;-71
2023/03/25 11:09:31;;;;;;;13.15;2.30;;;;;;;-145.50;100.00;65435.88;4903996;29;20058;-71
2023/03/25 11:12:03;;;;;;;17.23;2.55;;;;;;;-145.50;100.00;65435.88;4904343;29;20683;-71
2023/03/25 11:14:37;;;;;;;16.35;2.55;;;;;;;-145.50;100.00;65435.88;4900821;29;20066;-70
2023/03/25 11:17:10;;;;;;;14.32;2.65;;;;;;;-145.50;100.00;65435.88;4909505;29;20740;-71
2023/03/25 11:19:41;;;;;;;15.90;3.08;;;;;;;-145.50;100.00;65435.88;4899727;29;20058;-70
2023/03/25 11:22:25;;;;;;;12.95;2.20;;;;;;;-145.50;100.00;65435.88;4908472;29;20067;-70
2023/03/25 11:25:01;;;;;;;16.60;2.90;;;;;;;-145.50;100.00;65435.88;4899643;29;20052;-69
2023/03/25 11:27:29;;;;;;;14.43;2.35;;;;;;;-145.50;100.00;65435.88;4903471;29;20084;-70
2023/03/25 11:30:04;;;;;;;16.20;2.47;;;;;;;-145.50;100.00;65435.88;4901000;29;20085;-70